Etusivu
METAR-TAF:

METAR-TAF

Lentoasemat :

Red Oak Municipal Airport

Red Oak, Iowa, Yhdysvallat

Leveyspiiri: 41-01N, Pituuspiiri: 095-16W, korkeus merenpinnasta: 318 m

Tämänhetkinen sää

Tämä raportti tehtiin 20 minuuttia sitten, kello 12.35 UTC
Tuuli 5 kn etelästä/kaakosta
Lämpötila 16°C
Kosteus 94%
Ilmanpaine 1020 hPa
Näkyvyys: 16.1 km
Hajonneita pilviä 5500 ft:n korkeudessa
Pilvistä 6500 ft:n korkeudessa

METAR: KRDK 051235Z AUTO 16005KT 10SM BKN055 OVC065 16/15 A3012 RMK AO2

Aika: 07:55 (12:55 UTC)


TAF: puuttuu

Säähavainnot ja -ennusteet yli 4000 lentoasemalta (METAR- ja TAF-raportit).

Käytössä olevat sääasemat on merkitty karttaan keltaisilla ja punaisilla pisteillä.

Aseta hiiri pisteen päälle nähdäksesi sääaseman nimen.

Klikkaa sitten nähdäksesi säähavainnot ja -ennusteet.

Kartan vaihtaminen: klikkaa mustalla rastilla varustettuja vihreitä pisteitä, niin voit zoomata sisään; viivalla varustettua vihreää pistettä, niin voit zoomata ulos tai vihreitä nuolia, niin pääset viereisille kartoille.


METAR-TAF: